createdAt,value
2018-07-03T00:00:11.828Z,1.83
2018-07-03T00:02:40.143Z,1.70
2018-07-03T00:05:08.526Z,1.57
2018-07-03T00:07:37.086Z,1.67
2018-07-03T00:10:05.575Z,1.67
2018-07-03T00:12:34.088Z,1.70
2018-07-03T00:15:02.437Z,1.80
2018-07-03T00:17:30.846Z,1.70
2018-07-03T00:19:59.196Z,1.60
2018-07-03T00:22:27.535Z,1.70
2018-07-03T00:24:55.891Z,1.70
2018-07-03T00:27:24.244Z,1.50
2018-07-03T00:29:52.594Z,1.70
2018-07-03T00:32:20.964Z,1.70
2018-07-03T00:34:49.324Z,1.60
2018-07-03T00:37:17.655Z,1.50
2018-07-03T00:39:45.983Z,2.10
2018-07-03T00:42:14.312Z,1.70
2018-07-03T00:44:42.649Z,1.90
2018-07-03T00:47:10.987Z,1.70
2018-07-03T00:49:39.315Z,2.00
2018-07-03T00:52:07.640Z,1.97
2018-07-03T00:54:35.987Z,2.03
2018-07-03T00:57:04.330Z,1.80
2018-07-03T00:59:32.647Z,2.00
2018-07-03T01:02:00.983Z,2.03
2018-07-03T01:04:29.315Z,2.10
2018-07-03T01:06:57.680Z,1.70
2018-07-03T01:09:26.007Z,2.13
2018-07-03T01:11:54.420Z,1.70
2018-07-03T01:14:22.759Z,1.73
2018-07-03T01:16:51.107Z,1.90
2018-07-03T01:19:19.732Z,1.90
2018-07-03T01:21:48.086Z,1.70
2018-07-03T01:24:16.430Z,1.90
2018-07-03T01:26:44.761Z,1.83
2018-07-03T01:29:13.176Z,1.70
2018-07-03T01:31:41.550Z,1.67
2018-07-03T01:34:11.754Z,1.40
2018-07-03T01:36:40.079Z,1.53
2018-07-03T01:39:08.531Z,1.80
2018-07-03T01:41:36.916Z,1.60
2018-07-03T01:44:05.245Z,1.53
2018-07-03T01:46:33.571Z,1.30
2018-07-03T01:49:01.894Z,1.70
2018-07-03T01:51:30.224Z,1.43
2018-07-03T01:53:58.671Z,1.67
2018-07-03T01:56:27.002Z,1.60
2018-07-03T01:58:55.363Z,1.67
2018-07-03T02:01:23.692Z,1.50
2018-07-03T02:03:52.049Z,1.50
2018-07-03T02:06:20.401Z,1.60
2018-07-03T02:08:48.844Z,1.50
2018-07-03T02:11:17.227Z,1.67
2018-07-03T02:13:45.554Z,1.40
2018-07-03T02:16:14.016Z,1.50
2018-07-03T02:18:42.454Z,1.77
2018-07-03T02:21:10.797Z,1.60
2018-07-03T02:23:39.138Z,1.20
2018-07-03T02:26:07.517Z,1.47
2018-07-03T02:28:35.852Z,1.80
2018-07-03T02:31:04.205Z,1.30
2018-07-03T02:33:32.555Z,1.60
2018-07-03T02:36:00.913Z,1.40
2018-07-03T02:38:29.280Z,1.60
2018-07-03T02:40:57.670Z,1.40
2018-07-03T03:29:18.773Z,1.00
2018-07-03T03:31:47.091Z,1.27
2018-07-03T03:34:15.419Z,1.10
2018-07-03T03:36:43.809Z,1.20
2018-07-03T03:39:12.139Z,1.20
2018-07-03T03:41:40.461Z,1.30
2018-07-03T03:44:08.811Z,1.57
2018-07-03T03:46:37.162Z,1.40
2018-07-03T03:49:05.526Z,1.10
2018-07-03T03:51:33.861Z,1.47
2018-07-03T03:54:02.214Z,1.10
2018-07-03T03:56:30.534Z,1.30
2018-07-03T03:58:58.847Z,1.20
2018-07-03T04:01:27.363Z,1.30
2018-07-03T04:03:55.718Z,1.33
2018-07-03T04:06:24.154Z,1.57
2018-07-03T04:08:52.504Z,1.30
2018-07-03T04:11:20.802Z,1.10
2018-07-03T04:13:49.173Z,1.37
2018-07-03T04:16:17.538Z,1.20
2018-07-03T04:18:45.871Z,1.40
2018-07-03T04:21:14.226Z,1.10
2018-07-03T04:23:42.570Z,1.10
2018-07-03T04:26:10.919Z,1.30
2018-07-03T04:28:39.253Z,1.50
2018-07-03T04:31:07.575Z,1.47
2018-07-03T04:33:35.917Z,1.33
2018-07-03T04:36:04.299Z,5.27
2018-07-03T04:38:32.648Z,4.47
2018-07-03T04:41:00.995Z,7.80
2018-07-03T04:43:29.330Z,4.93
2018-07-03T04:45:58.550Z,2.50
2018-07-03T04:48:26.901Z,8.70
2018-07-03T04:50:55.213Z,5.20
2018-07-03T04:53:23.584Z,2.70
2018-07-03T04:55:51.894Z,2.40
2018-07-03T04:58:20.225Z,2.30
2018-07-03T05:00:48.587Z,1.80
2018-07-03T05:03:17.878Z,2.10
2018-07-03T05:05:46.203Z,1.50
2018-07-03T05:08:14.552Z,1.50
2018-07-03T05:10:42.942Z,1.33
2018-07-03T05:13:11.307Z,1.30
2018-07-03T05:15:39.645Z,1.47
2018-07-03T05:18:07.960Z,1.50
2018-07-03T05:20:36.275Z,1.60
2018-07-03T05:23:04.621Z,1.83
2018-07-03T05:25:32.963Z,1.60
2018-07-03T05:28:01.315Z,4.30
2018-07-03T05:30:29.656Z,6.77
2018-07-03T05:32:57.964Z,4.20
2018-07-03T05:35:26.360Z,1.97
2018-07-03T05:37:54.730Z,3.27
2018-07-03T05:40:23.070Z,4.00
2018-07-03T05:42:51.465Z,2.50
2018-07-03T05:45:19.905Z,1.73
2018-07-03T05:47:48.274Z,2.00
2018-07-03T05:50:16.691Z,1.90
2018-07-03T05:52:45.038Z,1.50
2018-07-03T05:55:14.195Z,1.77
2018-07-03T05:57:42.574Z,1.90
2018-07-03T06:00:10.977Z,1.70
2018-07-03T06:02:39.369Z,1.40
2018-07-03T06:05:08.164Z,1.57
2018-07-03T06:07:36.485Z,1.30
2018-07-03T06:10:05.114Z,1.50
2018-07-03T06:12:33.649Z,1.40
2018-07-03T06:15:02.017Z,1.40
2018-07-03T06:17:30.470Z,1.57
2018-07-03T06:19:58.808Z,1.40
2018-07-03T06:22:27.184Z,1.10
2018-07-03T06:24:55.556Z,1.40
2018-07-03T06:27:23.884Z,1.30
2018-07-03T06:29:52.201Z,1.30
2018-07-03T06:32:20.532Z,1.30
2018-07-03T06:34:48.880Z,1.20
2018-07-03T06:37:17.459Z,1.47
2018-07-03T06:39:45.602Z,1.10
2018-07-03T06:42:13.952Z,1.20
2018-07-03T06:44:42.317Z,1.27
2018-07-03T06:47:10.671Z,1.10
2018-07-03T06:49:39.028Z,1.20
2018-07-03T06:52:07.393Z,1.10
2018-07-03T06:54:35.919Z,1.30
2018-07-03T06:57:04.245Z,1.37
2018-07-03T06:59:32.567Z,1.10
2018-07-03T07:02:00.981Z,1.07
2018-07-03T07:04:29.342Z,1.20
2018-07-03T07:06:57.675Z,1.00
2018-07-03T07:09:26.040Z,1.00
2018-07-03T07:11:54.379Z,1.15
2018-07-03T07:14:22.750Z,1.12
2018-07-03T07:16:51.108Z,1.10
2018-07-03T07:19:19.437Z,1.27
2018-07-03T07:21:47.761Z,1.05
2018-07-03T07:24:16.136Z,1.25
2018-07-03T07:26:44.497Z,1.10
2018-07-03T07:29:12.861Z,1.00
2018-07-03T07:31:42.479Z,0.98
2018-07-03T07:34:10.833Z,1.20
2018-07-03T07:36:39.327Z,0.95
2018-07-03T07:39:09.640Z,1.00
2018-07-03T07:41:37.984Z,0.75
2018-07-03T07:44:06.638Z,1.00
2018-07-03T07:46:35.326Z,1.10
2018-07-03T07:49:04.620Z,1.00
2018-07-03T07:51:32.965Z,0.82
2018-07-03T07:54:02.383Z,0.82
2018-07-03T07:56:30.969Z,0.80
2018-07-03T07:58:59.479Z,0.85
2018-07-03T08:01:27.816Z,1.20
2018-07-03T08:03:56.311Z,0.80
2018-07-03T08:06:24.706Z,1.10
2018-07-03T08:08:53.096Z,0.80
2018-07-03T08:11:21.473Z,0.90
2018-07-03T08:13:49.844Z,0.95
2018-07-03T08:16:18.218Z,0.70
2018-07-03T08:18:46.572Z,0.88
2018-07-03T08:21:14.935Z,0.80
2018-07-03T08:23:43.312Z,0.80
2018-07-03T08:26:11.691Z,0.90
2018-07-03T08:28:40.090Z,0.90
2018-07-03T08:31:08.502Z,0.80
2018-07-03T08:33:36.990Z,1.10
2018-07-03T08:36:05.586Z,1.00
2018-07-03T08:38:33.977Z,1.05
2018-07-03T08:41:02.321Z,0.93
2018-07-03T08:43:30.712Z,0.90
2018-07-03T08:45:59.928Z,1.07
2018-07-03T08:48:28.696Z,0.85
2018-07-03T08:50:57.001Z,0.90
2018-07-03T08:53:25.461Z,0.70
2018-07-03T08:55:53.862Z,0.90
2018-07-03T08:58:22.284Z,0.80
2018-07-03T09:00:50.709Z,0.98
2018-07-03T09:03:19.097Z,0.80
2018-07-03T09:05:47.503Z,0.70
2018-07-03T09:08:15.907Z,0.80
2018-07-03T09:10:44.283Z,0.90
2018-07-03T09:13:12.629Z,0.80
2018-07-03T09:15:41.105Z,0.85
2018-07-03T09:18:09.536Z,0.90
2018-07-03T09:20:37.878Z,0.88
2018-07-03T09:23:06.371Z,0.80
2018-07-03T09:25:34.765Z,0.70
2018-07-03T09:28:03.340Z,0.80
2018-07-03T09:30:31.764Z,0.90
2018-07-03T09:33:00.155Z,0.70
2018-07-03T09:35:28.552Z,0.75
2018-07-03T09:37:56.960Z,0.60
2018-07-03T09:40:25.342Z,0.68
2018-07-03T09:42:53.784Z,0.80
2018-07-03T09:45:22.199Z,0.70
2018-07-03T09:47:50.632Z,0.60
2018-07-03T09:50:19.013Z,0.70
2018-07-03T09:52:47.418Z,0.80
2018-07-03T09:55:15.798Z,0.70
2018-07-03T09:57:44.206Z,0.60
2018-07-03T10:00:12.678Z,0.60
2018-07-03T10:02:41.127Z,0.80
2018-07-03T10:05:09.512Z,0.80
2018-07-03T10:07:37.974Z,0.68
2018-07-03T10:10:06.422Z,0.68
2018-07-03T10:12:34.820Z,0.90
2018-07-03T10:15:03.230Z,0.60
2018-07-03T10:17:31.813Z,0.70
2018-07-03T10:20:00.232Z,0.60
2018-07-03T10:22:28.628Z,0.65
2018-07-03T10:24:57.042Z,0.78
2018-07-03T10:27:25.429Z,0.70
2018-07-03T10:29:53.765Z,0.60
2018-07-03T10:32:22.247Z,0.60
2018-07-03T10:34:50.830Z,0.70
2018-07-03T10:37:19.256Z,0.70
2018-07-03T10:39:47.970Z,0.70
2018-07-03T10:42:16.424Z,0.88
2018-07-03T10:44:44.942Z,0.60
2018-07-03T10:47:13.422Z,0.85
2018-07-03T10:49:42.008Z,0.72
2018-07-03T10:52:10.608Z,0.65
2018-07-03T10:54:39.889Z,0.80
2018-07-03T10:57:09.242Z,0.70
2018-07-03T10:59:37.757Z,0.68
2018-07-03T11:02:06.433Z,0.90
2018-07-03T11:04:34.946Z,0.70
2018-07-03T11:07:03.594Z,0.80
2018-07-03T11:09:31.940Z,0.90
2018-07-03T11:12:00.281Z,0.90
2018-07-03T11:14:28.890Z,1.00
2018-07-03T11:16:57.336Z,0.90
2018-07-03T11:19:25.683Z,0.80
2018-07-03T11:21:54.194Z,1.10
2018-07-03T11:24:22.596Z,1.00
2018-07-03T11:26:51.226Z,0.90
2018-07-03T11:29:19.593Z,0.80
2018-07-03T11:31:47.936Z,0.90
2018-07-03T11:34:16.329Z,1.00
2018-07-03T11:36:44.708Z,0.80
2018-07-03T11:39:13.208Z,0.90
2018-07-03T11:41:41.548Z,1.00
2018-07-03T11:44:09.982Z,0.83
2018-07-03T11:46:38.385Z,0.83
2018-07-03T11:49:06.786Z,0.90
2018-07-03T11:51:35.238Z,0.70
2018-07-03T11:54:03.601Z,0.80
2018-07-03T11:56:31.950Z,0.80
2018-07-03T11:59:00.304Z,0.80
2018-07-03T12:01:28.693Z,0.90
2018-07-03T12:03:57.051Z,0.70
2018-07-03T12:06:25.670Z,1.00
2018-07-03T12:08:54.034Z,1.00
2018-07-03T12:11:22.363Z,0.90
2018-07-03T12:13:50.747Z,0.83
2018-07-03T12:16:19.206Z,0.80
2018-07-03T12:18:52.829Z,0.97
2018-07-03T12:21:21.166Z,1.00
2018-07-03T12:23:49.556Z,1.00
2018-07-03T12:26:17.979Z,0.90
2018-07-03T12:28:46.372Z,2.40
2018-07-03T12:31:14.757Z,2.77
2018-07-03T12:33:43.094Z,2.10
2018-07-03T12:36:11.732Z,1.63
2018-07-03T12:38:40.260Z,1.30
2018-07-03T12:41:08.814Z,1.20
2018-07-03T12:43:37.255Z,1.10
2018-07-03T12:46:05.679Z,1.00
2018-07-03T12:48:34.198Z,0.90
2018-07-03T12:51:02.743Z,0.83
2018-07-03T12:53:31.132Z,2.03
2018-07-03T12:55:59.551Z,1.20
2018-07-03T12:58:27.980Z,1.03
2018-07-03T13:00:56.375Z,1.10
2018-07-03T13:03:24.773Z,1.40
2018-07-03T13:05:53.606Z,1.60
2018-07-03T13:08:21.957Z,2.80
2018-07-03T13:10:50.604Z,1.30
2018-07-03T13:13:19.056Z,2.10
2018-07-03T13:15:47.460Z,2.37
2018-07-03T13:18:22.208Z,2.07
2018-07-03T13:20:51.918Z,1.67
2018-07-03T13:23:21.189Z,1.30
2018-07-03T13:25:49.569Z,1.40
2018-07-03T13:28:17.989Z,1.50
2018-07-03T13:30:46.384Z,1.10
2018-07-03T13:33:14.753Z,0.97
2018-07-03T13:35:43.111Z,0.80
2018-07-03T13:38:11.452Z,0.80
2018-07-03T13:40:39.811Z,1.00
2018-07-03T13:43:08.453Z,1.23
2018-07-03T13:45:37.305Z,0.87
2018-07-03T13:48:06.161Z,1.00
2018-07-03T13:50:34.556Z,1.00
2018-07-03T13:53:02.965Z,0.70
2018-07-03T13:55:31.823Z,2.23
2018-07-03T13:58:00.108Z,2.20
2018-07-03T14:00:28.470Z,1.40
2018-07-03T14:02:56.863Z,1.27
2018-07-03T14:05:25.634Z,0.90
2018-07-03T14:07:53.987Z,1.10
2018-07-03T14:10:22.445Z,0.90
2018-07-03T14:12:50.806Z,0.90
2018-07-03T14:15:19.186Z,1.03
2018-07-03T14:17:49.599Z,0.93
2018-07-03T14:20:17.968Z,0.90
2018-07-03T14:22:46.352Z,1.00
2018-07-03T14:25:14.721Z,1.10
2018-07-03T14:27:43.571Z,1.13
2018-07-03T14:30:11.918Z,1.00
2018-07-03T14:32:40.277Z,1.30
2018-07-03T14:35:08.617Z,1.10
2018-07-03T14:37:37.093Z,0.73
2018-07-03T14:40:06.124Z,1.03
2018-07-03T14:42:34.642Z,1.00
2018-07-03T14:45:03.034Z,1.03
2018-07-03T14:47:31.616Z,1.40
2018-07-03T14:49:59.993Z,0.80
2018-07-03T14:52:28.378Z,1.00
2018-07-03T14:54:56.744Z,1.17
2018-07-03T14:57:25.115Z,0.93
2018-07-03T14:59:53.501Z,0.97
2018-07-03T15:02:21.929Z,1.20
2018-07-03T15:04:50.232Z,0.80
2018-07-03T15:07:18.594Z,1.10
2018-07-03T15:09:47.402Z,0.93
2018-07-03T15:12:15.785Z,0.97
2018-07-03T15:14:44.189Z,0.90
2018-07-03T15:17:12.565Z,1.67
2018-07-03T15:19:46.597Z,1.43
2018-07-03T15:22:15.790Z,1.70
2018-07-03T15:24:44.174Z,1.43
2018-07-03T15:27:12.526Z,3.30
2018-07-03T15:29:40.875Z,2.50
2018-07-03T15:32:09.253Z,2.23
2018-07-03T15:34:37.671Z,1.67
2018-07-03T15:37:06.254Z,1.60
2018-07-03T15:39:34.574Z,1.13
2018-07-03T15:42:02.938Z,1.30
2018-07-03T15:44:42.691Z,0.90
2018-07-03T15:47:11.110Z,1.10
2018-07-03T15:49:39.459Z,1.10
2018-07-03T15:52:07.853Z,1.20
2018-07-03T15:54:36.199Z,1.27
2018-07-03T15:57:04.858Z,0.90
2018-07-03T15:59:33.603Z,1.20
2018-07-03T16:02:07.840Z,1.10
2018-07-03T16:05:17.954Z,1.10
2018-07-03T16:07:58.897Z,1.17
2018-07-03T16:10:27.750Z,1.10
2018-07-03T16:12:56.626Z,0.80
2018-07-03T16:15:25.277Z,1.00
2018-07-03T16:17:53.754Z,1.20
2018-07-03T16:20:27.550Z,1.10
2018-07-03T16:22:55.933Z,1.10
2018-07-03T16:25:24.381Z,0.70
2018-07-03T16:27:52.848Z,1.30
2018-07-03T16:30:21.247Z,1.47
2018-07-03T16:32:49.616Z,1.30
2018-07-03T16:35:18.001Z,2.00
2018-07-03T16:37:46.672Z,3.80
2018-07-03T16:40:15.060Z,2.97
2018-07-03T16:42:43.446Z,3.30
2018-07-03T16:45:11.861Z,2.47
2018-07-03T16:47:40.328Z,3.27
2018-07-03T16:50:08.683Z,3.70
2018-07-03T16:52:37.162Z,2.50
2018-07-03T16:55:05.541Z,2.90
2018-07-03T16:57:33.961Z,2.37
2018-07-03T17:00:02.365Z,1.70
2018-07-03T17:02:30.845Z,1.87
2018-07-03T17:04:59.263Z,1.57
2018-07-03T17:07:27.642Z,1.40
2018-07-03T17:09:56.023Z,1.40
2018-07-03T17:12:24.366Z,1.33
2018-07-03T17:14:52.806Z,1.23
2018-07-03T17:17:21.185Z,1.30
2018-07-03T17:19:49.576Z,1.40
2018-07-03T17:22:17.920Z,1.30
2018-07-03T17:24:46.256Z,1.23
2018-07-03T17:27:14.718Z,1.17
2018-07-03T17:29:43.087Z,1.30
2018-07-03T17:32:11.464Z,1.50
2018-07-03T17:34:39.839Z,1.30
2018-07-03T17:37:08.352Z,1.13
2018-07-03T17:39:48.066Z,1.30
2018-07-03T17:42:27.720Z,1.50
2018-07-03T17:46:03.846Z,1.80
2018-07-03T17:48:32.327Z,2.60
2018-07-03T17:51:00.703Z,1.57
2018-07-03T17:53:29.305Z,1.60
2018-07-03T17:55:58.591Z,1.73
2018-07-03T17:58:26.977Z,1.43
2018-07-03T18:00:55.336Z,1.60
2018-07-03T18:03:23.720Z,1.30
2018-07-03T18:05:52.662Z,1.40
2018-07-03T18:08:21.102Z,1.40
2018-07-03T18:10:49.486Z,1.50
2018-07-03T18:13:17.848Z,1.93
2018-07-03T18:15:46.354Z,2.13
2018-07-03T18:18:15.610Z,2.27
2018-07-03T18:20:43.999Z,2.50
2018-07-03T18:23:12.363Z,2.57
2018-07-03T18:25:40.784Z,2.30
2018-07-03T18:28:09.721Z,2.50
2018-07-03T18:30:38.090Z,1.97
2018-07-03T18:33:06.529Z,2.37
2018-07-03T18:35:35.387Z,1.93
2018-07-03T18:38:04.521Z,2.90
2018-07-03T18:40:32.940Z,3.00
2018-07-03T18:43:01.281Z,2.27
2018-07-03T18:45:29.696Z,2.20
2018-07-03T18:47:58.210Z,2.83
2018-07-03T18:50:26.661Z,2.50
2018-07-03T18:52:55.143Z,3.20
2018-07-03T18:55:23.621Z,3.77
2018-07-03T18:57:52.428Z,2.30
2018-07-03T19:00:20.818Z,2.13
2018-07-03T19:02:49.309Z,3.10
2018-07-03T19:05:17.687Z,4.83
2018-07-03T19:07:46.264Z,3.27
2018-07-03T19:10:14.838Z,2.80
2018-07-03T19:12:43.710Z,2.60
2018-07-03T19:15:12.127Z,2.43
2018-07-03T19:17:41.146Z,2.50
2018-07-03T19:20:09.632Z,2.20
2018-07-03T19:22:38.174Z,2.20
2018-07-03T19:25:06.620Z,2.30
2018-07-03T19:27:35.146Z,2.30
2018-07-03T19:30:03.591Z,2.20
2018-07-03T19:32:32.180Z,2.00
2018-07-03T19:35:00.652Z,2.00
2018-07-03T19:37:29.270Z,1.70
2018-07-03T19:39:57.725Z,1.80
2018-07-03T19:42:26.176Z,1.87
2018-07-03T19:44:54.627Z,2.23
2018-07-03T19:47:23.066Z,1.97
2018-07-03T19:49:51.421Z,1.90
2018-07-03T19:52:19.801Z,1.63
2018-07-03T19:54:48.209Z,1.60
2018-07-03T19:57:16.686Z,1.73
2018-07-03T19:59:45.166Z,1.47
2018-07-03T20:02:13.625Z,1.60
2018-07-03T20:04:42.661Z,1.50
2018-07-03T20:07:11.828Z,1.70
2018-07-03T20:09:40.330Z,1.70
2018-07-03T20:12:09.167Z,1.80
2018-07-03T20:14:38.721Z,1.80
2018-07-03T20:17:07.232Z,1.90
2018-07-03T20:19:35.653Z,2.00
2018-07-03T20:22:04.032Z,2.20
2018-07-03T20:24:32.546Z,2.37
2018-07-03T20:27:01.029Z,2.30
2018-07-03T20:29:29.659Z,1.73
2018-07-03T20:31:58.200Z,1.60
2018-07-03T20:34:26.805Z,1.60
2018-07-03T20:36:55.746Z,1.70
2018-07-03T20:39:24.767Z,1.70
2018-07-03T20:41:53.294Z,1.70
2018-07-03T20:44:22.386Z,1.90
2018-07-03T20:46:51.378Z,1.63
2018-07-03T20:49:20.382Z,1.70
2018-07-03T20:51:49.078Z,1.37
2018-07-03T20:54:17.699Z,1.73
2018-07-03T20:56:46.224Z,1.30
2018-07-03T20:59:14.866Z,1.40
2018-07-03T21:01:43.361Z,1.50
2018-07-03T21:04:12.314Z,1.67
2018-07-03T21:06:41.685Z,1.40
2018-07-03T21:09:11.408Z,1.43
2018-07-03T21:11:39.991Z,1.60
2018-07-03T21:14:09.396Z,1.30
2018-07-03T21:16:39.116Z,1.63
2018-07-03T21:19:08.154Z,1.57
2018-07-03T21:21:36.682Z,1.50
2018-07-03T21:24:05.187Z,1.80
2018-07-03T21:26:33.555Z,2.00
2018-07-03T21:29:01.905Z,1.93
2018-07-03T21:31:30.272Z,1.50
2018-07-03T21:33:58.631Z,1.97
2018-07-03T21:36:27.034Z,1.60
2018-07-03T21:38:55.397Z,1.73
2018-07-03T21:41:23.794Z,1.90
2018-07-03T21:43:52.179Z,1.67
2018-07-03T21:46:20.575Z,1.50
2018-07-03T21:48:48.928Z,1.83
2018-07-03T21:51:17.387Z,1.83
2018-07-03T21:53:45.773Z,1.80
2018-07-03T21:56:14.208Z,1.40
2018-07-03T21:58:42.608Z,1.90
2018-07-03T22:01:10.968Z,1.50
2018-07-03T22:03:39.308Z,1.50
2018-07-03T22:06:07.695Z,1.60
2018-07-03T22:08:36.022Z,1.70
2018-07-03T22:11:04.364Z,1.63
2018-07-03T22:13:32.735Z,1.70
2018-07-03T22:16:01.175Z,1.70
2018-07-03T22:18:29.566Z,1.80
2018-07-03T22:20:58.004Z,1.60
2018-07-03T22:23:26.342Z,1.43
2018-07-03T22:25:54.794Z,1.80
2018-07-03T22:28:23.136Z,1.20
2018-07-03T22:30:51.481Z,1.70
2018-07-03T22:33:19.858Z,1.43
2018-07-03T22:35:48.275Z,1.60
2018-07-03T22:38:16.645Z,1.50
2018-07-03T22:40:44.995Z,1.33
2018-07-03T22:43:13.343Z,1.80
2018-07-03T22:45:41.670Z,1.70
2018-07-03T22:48:10.103Z,1.97
2018-07-03T22:50:38.449Z,1.70
2018-07-03T22:53:06.786Z,1.80
2018-07-03T22:55:35.134Z,1.60
2018-07-03T22:58:03.474Z,1.80
2018-07-03T23:00:31.835Z,1.70
2018-07-03T23:03:00.220Z,1.33
2018-07-03T23:05:28.623Z,1.50
2018-07-03T23:07:56.989Z,1.40
2018-07-03T23:10:25.373Z,1.87
2018-07-03T23:12:53.694Z,1.50
2018-07-03T23:15:22.023Z,1.73
2018-07-03T23:17:50.366Z,1.70
2018-07-03T23:20:18.729Z,1.93
2018-07-03T23:22:47.040Z,2.37
2018-07-03T23:25:15.486Z,1.70
2018-07-03T23:27:43.920Z,1.73
2018-07-03T23:30:12.345Z,1.97
2018-07-03T23:32:40.678Z,1.87
2018-07-03T23:35:09.019Z,1.50
2018-07-03T23:37:37.407Z,1.60
2018-07-03T23:40:05.724Z,1.73
2018-07-03T23:42:34.054Z,1.70
2018-07-03T23:45:02.385Z,1.80
2018-07-03T23:47:42.080Z,1.60
2018-07-03T23:50:21.906Z,1.53
2018-07-03T23:53:01.791Z,2.00
2018-07-03T23:55:41.557Z,1.43
2018-07-03T23:58:21.404Z,1.80
